createdAt,value
2022-12-19T00:01:59.141Z,73.35
2022-12-19T00:04:27.228Z,73.43
2022-12-19T00:06:58.158Z,72.90
2022-12-19T00:09:26.733Z,73.18
2022-12-19T00:11:54.986Z,73.11
2022-12-19T00:14:24.348Z,72.86
2022-12-19T00:16:52.326Z,72.08
2022-12-19T00:19:20.322Z,71.80
2022-12-19T00:21:48.221Z,71.78
2022-12-19T00:24:21.271Z,71.85
2022-12-19T00:26:50.902Z,71.91
2022-12-19T00:29:18.812Z,72.30
2022-12-19T00:31:48.167Z,72.16
2022-12-19T00:34:16.289Z,71.67
2022-12-19T00:36:44.338Z,71.08
2022-12-19T00:39:12.932Z,71.53
2022-12-19T00:41:42.523Z,72.49
2022-12-19T00:44:12.814Z,72.09
2022-12-19T00:46:42.211Z,71.63
2022-12-19T00:49:11.893Z,71.75
2022-12-19T00:51:39.791Z,71.99
2022-12-19T00:54:11.044Z,72.05
2022-12-19T00:56:39.898Z,72.51
2022-12-19T00:59:08.911Z,73.07
2022-12-19T01:01:38.741Z,72.73
2022-12-19T01:07:02.117Z,73.36
2022-12-19T01:09:34.959Z,73.37
2022-12-19T01:12:24.681Z,73.05
2022-12-19T01:14:56.389Z,72.95
2022-12-19T01:17:43.492Z,72.59
2022-12-19T01:20:17.564Z,72.17
2022-12-19T01:22:50.643Z,72.13
2022-12-19T01:25:18.704Z,72.81
2022-12-19T01:27:46.563Z,72.31
2022-12-19T01:30:14.670Z,72.09
2022-12-19T01:32:43.246Z,71.67
2022-12-19T01:35:21.166Z,72.04
2022-12-19T01:37:55.893Z,72.22
2022-12-19T01:40:36.545Z,72.25
2022-12-19T01:43:04.780Z,72.75
2022-12-19T01:45:36.029Z,73.17
2022-12-19T01:48:14.894Z,73.27
2022-12-19T01:50:56.253Z,73.42
2022-12-19T01:53:48.989Z,73.53
2022-12-19T01:56:20.627Z,74.04
2022-12-19T01:58:51.043Z,72.96
2022-12-19T02:01:29.104Z,73.30
2022-12-19T02:03:59.731Z,73.35
2022-12-19T02:06:28.696Z,73.52
2022-12-19T02:08:58.357Z,73.79
2022-12-19T02:11:26.369Z,73.88
2022-12-19T02:13:54.474Z,74.17
2022-12-19T02:16:33.233Z,74.42
2022-12-19T02:19:15.240Z,73.83
2022-12-19T02:21:56.709Z,73.54
2022-12-19T02:24:55.447Z,73.12
2022-12-19T02:27:43.170Z,73.03
2022-12-19T02:30:15.158Z,73.81
2022-12-19T02:33:03.164Z,73.74
2022-12-19T02:35:42.316Z,73.84
2022-12-19T02:38:17.080Z,73.29
2022-12-19T02:40:51.830Z,73.82
2022-12-19T02:43:25.616Z,73.95
2022-12-19T02:45:54.815Z,73.45
2022-12-19T02:48:25.333Z,73.36
2022-12-19T02:50:53.340Z,73.57
2022-12-19T02:53:23.779Z,73.51
2022-12-19T02:56:13.875Z,74.05
2022-12-19T02:59:00.868Z,74.42
2022-12-19T03:01:41.066Z,74.28
2022-12-19T03:04:18.697Z,74.68
2022-12-19T03:06:53.343Z,74.68
2022-12-19T03:09:30.443Z,74.27
2022-12-19T03:12:04.376Z,74.54
2022-12-19T03:14:33.214Z,74.93
2022-12-19T03:17:05.622Z,75.20
2022-12-19T03:19:37.016Z,74.46
2022-12-19T03:22:04.927Z,74.74
2022-12-19T03:24:33.004Z,74.83
2022-12-19T03:27:04.244Z,75.32
2022-12-19T03:29:35.247Z,75.27
2022-12-19T03:32:06.530Z,75.22
2022-12-19T03:34:39.256Z,75.39
2022-12-19T03:37:10.550Z,75.42
2022-12-19T03:39:42.082Z,75.54
2022-12-19T03:42:29.250Z,75.55
2022-12-19T03:45:02.529Z,75.63
2022-12-19T03:47:35.871Z,76.46
2022-12-19T03:50:06.417Z,76.16
2022-12-19T03:52:42.698Z,76.75
2022-12-19T03:55:17.499Z,76.72
2022-12-19T03:57:52.469Z,76.18
2022-12-19T04:00:21.528Z,76.64
2022-12-19T04:02:52.353Z,76.16
2022-12-19T04:05:24.233Z,76.44
2022-12-19T04:07:55.140Z,76.81
2022-12-19T04:10:25.965Z,76.63
2022-12-19T04:12:58.055Z,76.71
2022-12-19T04:15:36.011Z,77.09
2022-12-19T04:18:08.817Z,77.07
2022-12-19T04:20:42.179Z,76.91
2022-12-19T04:23:15.964Z,77.47
2022-12-19T04:25:48.384Z,77.54
2022-12-19T04:28:21.926Z,77.97
2022-12-19T04:30:50.774Z,77.73
2022-12-19T04:33:18.662Z,77.61
2022-12-19T04:35:47.963Z,77.79
2022-12-19T04:38:15.949Z,78.65
2022-12-19T04:40:43.885Z,78.13
2022-12-19T04:43:11.729Z,77.81
2022-12-19T04:45:42.026Z,77.93
2022-12-19T04:48:10.351Z,78.38
2022-12-19T04:50:38.378Z,78.54
2022-12-19T04:53:08.228Z,77.81
2022-12-19T04:55:36.218Z,78.53
2022-12-19T04:58:05.726Z,78.18
2022-12-19T05:00:33.721Z,78.04
2022-12-19T05:03:01.714Z,78.16
2022-12-19T05:05:29.961Z,78.43
2022-12-19T05:07:57.962Z,78.33
2022-12-19T05:10:27.136Z,78.65
2022-12-19T05:12:55.693Z,79.27
2022-12-19T05:15:23.736Z,78.83
2022-12-19T05:17:51.550Z,79.38
2022-12-19T05:20:19.623Z,79.05
2022-12-19T05:22:47.971Z,79.64
2022-12-19T05:25:16.436Z,79.28
2022-12-19T05:27:45.615Z,79.30
2022-12-19T05:30:14.119Z,79.39
2022-12-19T05:32:41.933Z,79.31
2022-12-19T05:35:09.974Z,79.54
2022-12-19T05:37:37.803Z,79.34
2022-12-19T05:40:06.480Z,78.50
2022-12-19T05:42:34.428Z,78.72
2022-12-19T05:45:03.577Z,78.16
2022-12-19T05:47:32.188Z,78.42
2022-12-19T05:49:59.986Z,78.54
2022-12-19T05:52:27.785Z,78.50
2022-12-19T05:54:55.797Z,78.34
2022-12-19T05:57:23.688Z,77.94
2022-12-19T05:59:51.609Z,78.66
2022-12-19T06:02:21.426Z,78.50
2022-12-19T06:04:49.357Z,78.58
2022-12-19T06:07:20.894Z,79.04
2022-12-19T06:09:49.012Z,78.69
2022-12-19T06:12:16.803Z,78.33
2022-12-19T06:14:44.669Z,78.58
2022-12-19T06:17:12.540Z,78.49
2022-12-19T06:19:41.751Z,77.90
2022-12-19T06:22:09.572Z,78.58
2022-12-19T06:24:37.507Z,78.08
2022-12-19T06:27:05.333Z,78.40
2022-12-19T06:29:33.685Z,78.80
2022-12-19T06:32:01.510Z,78.23
2022-12-19T06:35:02.381Z,78.19
2022-12-19T06:37:18.548Z,78.04
2022-12-19T06:39:48.407Z,78.02
2022-12-19T06:42:24.541Z,78.27
2022-12-19T06:44:56.491Z,78.70
2022-12-19T06:47:25.166Z,78.42
2022-12-19T06:49:52.964Z,78.10
2022-12-19T06:52:22.303Z,78.03
2022-12-19T06:54:50.157Z,77.57
2022-12-19T06:57:17.917Z,77.74
2022-12-19T06:59:45.764Z,77.23
2022-12-19T07:02:25.196Z,77.37
2022-12-19T07:04:58.222Z,77.52
2022-12-19T07:07:28.504Z,77.34
2022-12-19T07:09:56.365Z,77.56
2022-12-19T07:12:24.160Z,77.13
2022-12-19T07:14:53.697Z,76.92
2022-12-19T07:17:23.623Z,76.89
2022-12-19T07:19:51.612Z,77.21
2022-12-19T07:22:19.696Z,77.13
2022-12-19T07:24:49.271Z,76.96
2022-12-19T07:27:17.223Z,76.74
2022-12-19T07:29:45.001Z,76.68
2022-12-19T07:32:12.761Z,76.50
2022-12-19T07:34:40.747Z,76.39
2022-12-19T07:37:08.526Z,76.46
2022-12-19T07:39:36.410Z,76.90
2022-12-19T07:42:05.712Z,76.07
2022-12-19T07:44:39.780Z,76.44
2022-12-19T07:47:07.878Z,76.39
2022-12-19T07:49:35.716Z,76.11
2022-12-19T07:52:04.014Z,76.08
2022-12-19T07:54:31.829Z,75.97
2022-12-19T07:56:59.585Z,75.48
2022-12-19T07:59:32.282Z,75.64
2022-12-19T08:02:03.757Z,75.67
2022-12-19T08:04:31.705Z,75.67
2022-12-19T08:06:59.555Z,75.76
2022-12-19T08:09:27.832Z,75.16
2022-12-19T08:11:55.819Z,74.79
2022-12-19T08:14:23.634Z,75.04
2022-12-19T08:19:40.820Z,74.77
2022-12-19T08:22:08.673Z,74.52
2022-12-19T08:24:36.752Z,74.65
2022-12-19T08:27:04.757Z,74.36
2022-12-19T08:29:32.596Z,74.29
2022-12-19T08:32:01.745Z,74.16
2022-12-19T08:34:29.611Z,73.69
2022-12-19T08:36:57.787Z,73.96
2022-12-19T08:39:25.785Z,73.92
2022-12-19T08:41:53.577Z,74.05
2022-12-19T08:44:21.579Z,73.64
2022-12-19T08:46:50.452Z,73.47
2022-12-19T08:49:20.500Z,73.26
2022-12-19T08:51:48.433Z,72.88
2022-12-19T08:54:16.587Z,72.97
2022-12-19T08:56:46.509Z,72.62
2022-12-19T08:59:18.539Z,72.42
2022-12-19T09:01:58.848Z,72.15
2022-12-19T09:05:31.347Z,72.19
2022-12-19T09:07:16.534Z,72.08
2022-12-19T09:09:44.804Z,71.90
2022-12-19T09:12:13.610Z,71.96
2022-12-19T09:14:41.413Z,71.95
2022-12-19T09:17:09.644Z,71.54
2022-12-19T09:19:39.097Z,71.45
2022-12-19T09:22:09.085Z,71.32
2022-12-19T09:24:36.950Z,70.90
2022-12-19T09:27:05.005Z,70.64
2022-12-19T09:29:35.536Z,70.40
2022-12-19T09:32:03.711Z,70.01
2022-12-19T09:34:38.177Z,69.59
2022-12-19T09:37:09.153Z,69.23
2022-12-19T09:39:43.255Z,68.47
2022-12-19T09:42:41.245Z,68.79
2022-12-19T09:45:33.076Z,68.58
2022-12-19T09:48:02.286Z,68.21
2022-12-19T09:50:49.036Z,68.18
2022-12-19T09:53:22.322Z,67.36
2022-12-19T09:55:54.092Z,67.23
2022-12-19T09:58:36.729Z,66.86
2022-12-19T10:01:09.302Z,67.25
2022-12-19T10:03:40.772Z,67.25
2022-12-19T10:07:10.430Z,66.85
2022-12-19T10:10:09.791Z,66.89
2022-12-19T10:12:42.764Z,66.94
2022-12-19T10:15:19.689Z,66.76
2022-12-19T10:18:05.487Z,67.02
2022-12-19T10:20:36.383Z,66.92
2022-12-19T10:23:17.925Z,66.57
2022-12-19T10:25:58.764Z,66.65
2022-12-19T10:28:47.718Z,66.58
2022-12-19T10:31:22.364Z,66.72
2022-12-19T10:33:58.453Z,67.00
2022-12-19T10:36:48.735Z,66.64
2022-12-19T10:39:25.056Z,66.78
2022-12-19T10:41:57.922Z,66.81
2022-12-19T10:44:30.067Z,66.62
2022-12-19T10:46:57.989Z,66.79
2022-12-19T10:49:28.052Z,66.96
2022-12-19T10:52:01.172Z,66.67
2022-12-19T10:54:39.470Z,66.61
2022-12-19T10:57:25.682Z,66.70
2022-12-19T10:59:58.519Z,66.76
2022-12-19T11:02:41.088Z,66.90
2022-12-19T11:05:24.330Z,66.83
2022-12-19T11:08:03.618Z,66.38
2022-12-19T11:12:09.373Z,66.57
2022-12-19T11:18:45.329Z,66.32
2022-12-19T11:20:53.063Z,66.41
2022-12-19T11:29:30.011Z,66.50
2022-12-19T11:29:35.108Z,66.68
2022-12-19T11:30:08.858Z,66.49
2022-12-19T11:30:43.543Z,66.58
2022-12-19T11:32:12.176Z,66.81
2022-12-19T11:33:56.251Z,66.30
2022-12-19T11:36:32.473Z,66.27
2022-12-19T11:39:00.913Z,66.65
2022-12-19T11:41:34.755Z,66.39
2022-12-19T11:44:08.499Z,66.43
2022-12-19T11:46:44.589Z,66.56
2022-12-19T11:49:23.660Z,66.18
2022-12-19T11:51:57.442Z,66.54
2022-12-19T11:54:30.813Z,66.63
2022-12-19T11:56:58.740Z,66.58
2022-12-19T11:59:32.366Z,66.65
2022-12-19T12:02:14.019Z,66.53
2022-12-19T12:04:55.852Z,67.00
2022-12-19T12:08:16.226Z,66.57
2022-12-19T12:16:23.526Z,66.33
2022-12-19T12:22:53.838Z,67.09
2022-12-19T12:24:46.819Z,66.80
2022-12-19T12:31:21.496Z,66.82
2022-12-19T12:31:23.790Z,66.89
2022-12-19T12:31:46.051Z,66.76
2022-12-19T12:31:47.726Z,66.67
2022-12-19T12:35:36.472Z,65.89
2022-12-19T12:35:46.392Z,65.97
2022-12-19T12:40:46.663Z,65.95
2022-12-19T12:43:32.243Z,65.67
2022-12-19T12:46:00.383Z,65.74
2022-12-19T12:48:34.153Z,65.62
2022-12-19T12:51:04.446Z,65.42
2022-12-19T12:53:36.228Z,65.44
2022-12-19T12:56:07.485Z,65.62
2022-12-19T12:59:04.613Z,65.74
2022-12-19T13:01:38.779Z,65.46
2022-12-19T13:04:19.141Z,65.34
2022-12-19T13:09:41.850Z,65.34
2022-12-19T13:12:38.725Z,65.51
2022-12-19T13:15:34.305Z,65.55
2022-12-19T13:18:10.672Z,65.38
2022-12-19T13:20:45.517Z,65.43
2022-12-19T13:23:33.404Z,65.05
2022-12-19T13:26:02.621Z,65.19
2022-12-19T13:28:39.651Z,64.94
2022-12-19T13:31:23.136Z,65.18
2022-12-19T13:34:20.160Z,65.90
2022-12-19T13:39:49.256Z,65.61
2022-12-19T13:39:58.420Z,66.53
2022-12-19T13:43:08.214Z,66.19
2022-12-19T13:45:42.252Z,66.26
2022-12-19T13:48:16.564Z,66.64
2022-12-19T13:50:47.661Z,67.07
2022-12-19T13:53:18.301Z,66.40
2022-12-19T13:55:46.183Z,66.56
2022-12-19T13:58:29.258Z,66.73
2022-12-19T14:01:01.904Z,66.70
2022-12-19T14:03:36.089Z,67.08
2022-12-19T14:06:16.058Z,67.39
2022-12-19T14:09:20.259Z,67.59
2022-12-19T14:13:46.248Z,66.91
2022-12-19T14:15:12.822Z,66.91
2022-12-19T14:17:41.832Z,67.39
2022-12-19T14:22:01.774Z,67.37
2022-12-19T14:23:07.592Z,67.24
2022-12-19T14:28:15.654Z,67.50
2022-12-19T14:28:50.688Z,67.40
2022-12-19T14:31:26.382Z,67.58
2022-12-19T14:34:19.104Z,67.52
2022-12-19T14:36:50.635Z,67.27
2022-12-19T14:39:28.863Z,67.50
2022-12-19T14:43:55.438Z,67.53
2022-12-19T14:52:25.320Z,67.49
2022-12-19T14:52:34.299Z,67.75
2022-12-19T14:54:31.358Z,67.86
2022-12-19T14:57:25.487Z,67.99
2022-12-19T15:01:08.212Z,67.95
2022-12-19T15:03:19.781Z,68.06
2022-12-19T15:05:49.482Z,67.95
2022-12-19T15:09:50.759Z,68.13
2022-12-19T15:11:53.680Z,68.18
2022-12-19T15:14:51.285Z,68.25
2022-12-19T15:17:24.367Z,67.86
2022-12-19T15:19:52.794Z,67.82
2022-12-19T15:22:21.982Z,68.11
2022-12-19T15:24:49.787Z,67.98
2022-12-19T15:27:18.534Z,68.03
2022-12-19T15:29:46.606Z,67.87
2022-12-19T15:32:15.901Z,67.79
2022-12-19T15:34:51.015Z,67.79
2022-12-19T15:37:19.838Z,68.00
2022-12-19T15:39:49.218Z,68.38
2022-12-19T15:42:21.509Z,68.14
2022-12-19T15:44:51.142Z,68.09
2022-12-19T15:47:23.110Z,67.57
2022-12-19T15:49:51.057Z,67.74
2022-12-19T15:52:21.649Z,68.19
2022-12-19T15:54:51.375Z,68.00
2022-12-19T15:57:27.203Z,67.45
2022-12-19T15:59:56.616Z,67.50
2022-12-19T16:02:37.524Z,67.58
2022-12-19T16:05:15.538Z,67.62
2022-12-19T16:07:43.783Z,67.64
2022-12-19T16:10:13.492Z,67.45
2022-12-19T16:12:43.969Z,67.30
2022-12-19T16:15:17.379Z,67.37
2022-12-19T16:17:45.245Z,67.51
2022-12-19T16:20:18.768Z,67.78
2022-12-19T16:22:46.938Z,67.99
2022-12-19T16:25:17.255Z,68.26
2022-12-19T16:27:47.686Z,68.09
2022-12-19T16:30:19.537Z,67.97
2022-12-19T16:32:48.259Z,67.81
2022-12-19T16:35:34.299Z,67.21
2022-12-19T16:38:06.400Z,67.29
2022-12-19T16:40:36.052Z,67.38
2022-12-19T16:43:06.690Z,67.37
2022-12-19T16:45:35.876Z,67.49
2022-12-19T16:48:03.871Z,67.99
2022-12-19T16:50:32.836Z,68.27
2022-12-19T16:53:00.591Z,69.49
2022-12-19T16:55:28.585Z,69.46
2022-12-19T16:57:59.018Z,69.18
2022-12-19T17:00:27.573Z,69.41
2022-12-19T17:02:58.067Z,69.39
2022-12-19T17:05:28.109Z,69.20
2022-12-19T17:07:56.762Z,69.46
2022-12-19T17:10:29.791Z,69.61
2022-12-19T17:13:00.248Z,69.52
2022-12-19T17:15:31.264Z,69.90
2022-12-19T17:18:01.752Z,69.95
2022-12-19T17:20:39.538Z,70.06
2022-12-19T17:23:14.364Z,70.29
2022-12-19T17:25:42.391Z,70.42
2022-12-19T17:28:12.598Z,70.67
2022-12-19T17:30:41.922Z,70.96
2022-12-19T17:33:15.527Z,71.04
2022-12-19T17:35:43.851Z,71.32
2022-12-19T17:38:14.309Z,71.41
2022-12-19T17:40:42.822Z,71.27
2022-12-19T17:43:13.200Z,70.49
2022-12-19T17:45:42.365Z,70.76
2022-12-19T17:48:21.957Z,70.82
2022-12-19T17:50:49.858Z,70.64
2022-12-19T17:53:17.652Z,70.38
2022-12-19T17:55:45.515Z,70.46
2022-12-19T17:58:14.651Z,70.54
2022-12-19T18:00:43.577Z,70.87
2022-12-19T18:03:21.236Z,70.75
2022-12-19T18:05:50.670Z,70.88
2022-12-19T18:08:25.414Z,70.45
2022-12-19T18:10:56.482Z,70.50
2022-12-19T18:13:27.287Z,70.36
2022-12-19T18:15:58.272Z,70.22
2022-12-19T18:18:29.732Z,69.88
2022-12-19T18:20:58.299Z,69.95
2022-12-19T18:23:26.202Z,69.87
2022-12-19T18:25:59.467Z,69.68
2022-12-19T18:28:30.865Z,69.43
2022-12-19T18:31:01.994Z,69.45
2022-12-19T18:33:37.888Z,69.11
2022-12-19T18:36:07.570Z,68.97
2022-12-19T18:38:35.448Z,69.03
2022-12-19T18:41:03.676Z,69.09
2022-12-19T18:43:33.630Z,68.57
2022-12-19T18:46:01.558Z,68.93
2022-12-19T18:48:32.923Z,69.13
2022-12-19T18:51:01.877Z,68.91
2022-12-19T18:53:35.259Z,69.11
2022-12-19T18:56:05.979Z,69.08
2022-12-19T18:58:35.560Z,69.18
2022-12-19T19:01:04.748Z,69.03
2022-12-19T19:03:34.707Z,69.24
2022-12-19T19:06:03.665Z,69.32
2022-12-19T19:08:34.184Z,69.35
2022-12-19T19:11:31.920Z,69.06
2022-12-19T19:14:01.182Z,69.32
2022-12-19T19:16:29.087Z,69.60
2022-12-19T19:18:59.544Z,69.33
2022-12-19T19:21:33.361Z,69.24
2022-12-19T19:24:05.866Z,69.31
2022-12-19T19:26:33.963Z,69.18
2022-12-19T19:29:03.882Z,69.23
2022-12-19T19:31:35.233Z,69.03
2022-12-19T19:34:09.888Z,68.77
2022-12-19T19:36:41.322Z,68.89
2022-12-19T19:39:10.673Z,69.02
2022-12-19T19:41:38.609Z,68.92
2022-12-19T19:44:07.758Z,68.68
2022-12-19T19:46:37.007Z,68.65
2022-12-19T19:49:05.035Z,68.97
2022-12-19T19:51:32.893Z,69.14
2022-12-19T19:54:00.883Z,68.91
2022-12-19T19:56:28.871Z,68.56
2022-12-19T19:59:00.269Z,68.56
2022-12-19T20:01:30.311Z,68.36
2022-12-19T20:03:58.493Z,68.39
2022-12-19T20:06:30.036Z,68.56
2022-12-19T20:08:57.938Z,68.55
2022-12-19T20:11:25.956Z,68.42
2022-12-19T20:13:53.821Z,68.45
2022-12-19T20:16:21.751Z,68.83
2022-12-19T20:18:53.109Z,68.96
2022-12-19T20:21:22.409Z,68.55
2022-12-19T20:23:50.327Z,68.85
2022-12-19T20:26:18.913Z,68.92
2022-12-19T20:28:50.102Z,68.95
2022-12-19T20:31:19.427Z,69.43
2022-12-19T20:33:48.591Z,69.29
2022-12-19T20:36:18.516Z,69.34
2022-12-19T20:38:47.541Z,69.23
2022-12-19T20:41:15.728Z,69.73
2022-12-19T20:43:43.631Z,69.60
2022-12-19T20:46:14.046Z,69.70
2022-12-19T20:48:42.360Z,69.71
2022-12-19T20:51:10.938Z,70.17
2022-12-19T20:53:41.637Z,69.90
2022-12-19T20:56:12.085Z,69.75
2022-12-19T20:58:40.037Z,70.14
2022-12-19T21:01:10.266Z,70.33
2022-12-19T21:03:38.966Z,70.42
2022-12-19T21:06:08.235Z,70.39
2022-12-19T21:08:36.909Z,70.49
2022-12-19T21:11:07.730Z,70.89
2022-12-19T21:13:35.999Z,70.92
2022-12-19T21:16:08.518Z,71.13
2022-12-19T21:18:36.902Z,70.70
2022-12-19T21:21:05.143Z,70.68
2022-12-19T21:23:33.406Z,70.98
2022-12-19T21:26:04.180Z,70.92
2022-12-19T21:28:33.856Z,71.20
2022-12-19T21:31:04.588Z,72.22
2022-12-19T21:33:32.603Z,71.49
2022-12-19T21:36:06.589Z,71.64
2022-12-19T21:38:34.535Z,71.67
2022-12-19T21:41:03.817Z,71.66
2022-12-19T21:43:33.517Z,71.54
2022-12-19T21:46:09.993Z,71.86
2022-12-19T21:48:39.406Z,71.80
2022-12-19T21:51:07.564Z,72.00
2022-12-19T21:53:36.537Z,72.00
2022-12-19T21:56:06.330Z,71.61
2022-12-19T21:58:35.706Z,71.92
2022-12-19T22:01:12.685Z,71.88
2022-12-19T22:03:41.441Z,72.12
2022-12-19T22:06:14.495Z,72.06
2022-12-19T22:08:42.563Z,72.18
2022-12-19T22:11:14.230Z,72.29
2022-12-19T22:13:43.422Z,72.02
2022-12-19T22:16:12.431Z,72.26
2022-12-19T22:18:40.944Z,72.02
2022-12-19T22:21:10.029Z,72.10
2022-12-19T22:23:38.283Z,72.67
2022-12-19T22:26:08.182Z,72.46
2022-12-19T22:28:38.397Z,72.27
2022-12-19T22:31:17.056Z,72.71
2022-12-19T22:33:45.786Z,72.50
2022-12-19T22:36:15.625Z,72.41
2022-12-19T22:38:46.448Z,72.46
2022-12-19T22:41:15.749Z,72.88
2022-12-19T22:43:43.882Z,73.02
2022-12-19T22:46:14.458Z,72.64
2022-12-19T22:48:43.145Z,72.69
2022-12-19T22:51:11.428Z,73.08
2022-12-19T22:53:40.121Z,72.85
2022-12-19T22:56:11.564Z,73.18
2022-12-19T22:58:42.037Z,72.71
2022-12-19T23:01:16.449Z,73.13
2022-12-19T23:03:45.017Z,72.75
2022-12-19T23:06:13.366Z,72.84
2022-12-19T23:08:41.571Z,72.77
2022-12-19T23:11:17.033Z,73.29
2022-12-19T23:13:46.239Z,72.83
2022-12-19T23:16:15.719Z,73.33
2022-12-19T23:18:44.112Z,72.90
2022-12-19T23:21:14.279Z,72.99
2022-12-19T23:23:43.538Z,73.15
2022-12-19T23:26:15.818Z,73.01
2022-12-19T23:28:44.948Z,73.56
2022-12-19T23:31:15.300Z,73.60
2022-12-19T23:33:43.165Z,73.58
2022-12-19T23:36:11.200Z,73.40
2022-12-19T23:38:39.030Z,73.70
2022-12-19T23:41:09.300Z,73.40
2022-12-19T23:43:38.125Z,73.58
2022-12-19T23:46:06.937Z,73.83
2022-12-19T23:48:36.446Z,73.82
2022-12-19T23:51:06.265Z,73.47
2022-12-19T23:53:34.504Z,73.20
2022-12-19T23:56:05.612Z,73.54
2022-12-19T23:58:34.201Z,73.64
